createdAt,value
2018-05-21T00:01:24.556Z,13.27
2018-05-21T00:03:55.555Z,13.26
2018-05-21T00:06:24.693Z,13.22
2018-05-21T00:08:53.774Z,13.20
2018-05-21T00:11:23.001Z,13.19
2018-05-21T00:13:51.817Z,13.17
2018-05-21T00:16:22.386Z,13.14
2018-05-21T00:18:51.029Z,13.12
2018-05-21T00:21:24.549Z,13.10
2018-05-21T00:23:53.176Z,13.05
2018-05-21T00:26:21.807Z,13.02
2018-05-21T00:28:50.434Z,12.99
2018-05-21T00:31:19.044Z,12.98
2018-05-21T00:33:47.677Z,12.95
2018-05-21T00:36:16.278Z,12.93
2018-05-21T00:38:44.939Z,12.92
2018-05-21T00:41:13.542Z,12.91
2018-05-21T00:43:42.175Z,12.90
2018-05-21T00:46:10.793Z,12.88
2018-05-21T00:48:41.886Z,12.87
2018-05-21T00:51:13.952Z,12.86
2018-05-21T00:53:43.213Z,12.86
2018-05-21T00:56:12.171Z,12.84
2018-05-21T00:58:40.799Z,12.84
2018-05-21T01:01:11.559Z,12.84
2018-05-21T01:03:40.202Z,12.83
2018-05-21T01:06:08.869Z,13.48
2018-05-21T01:08:37.631Z,13.04
2018-05-21T01:11:06.790Z,12.97
2018-05-21T01:13:35.878Z,12.92
2018-05-21T01:16:04.841Z,12.89
2018-05-21T01:18:33.914Z,12.85
2018-05-21T01:21:02.450Z,13.48
2018-05-21T01:23:31.081Z,12.99
2018-05-21T01:26:02.386Z,12.86
2018-05-21T01:28:32.773Z,12.79
2018-05-21T01:31:02.551Z,12.72
2018-05-21T01:33:31.177Z,12.64
2018-05-21T01:36:00.605Z,13.26
2018-05-21T01:38:29.219Z,12.76
2018-05-21T01:40:57.850Z,12.63
2018-05-21T01:43:26.438Z,12.57
2018-05-21T01:45:57.909Z,12.51
2018-05-21T01:48:26.518Z,12.44
2018-05-21T01:50:55.158Z,12.38
2018-05-21T01:53:33.184Z,13.04
2018-05-21T01:56:04.534Z,12.52
2018-05-21T01:58:33.428Z,12.40
2018-05-21T02:01:04.505Z,12.33
2018-05-21T02:03:33.106Z,12.28
2018-05-21T02:06:01.750Z,12.23
2018-05-21T02:08:30.417Z,12.18
2018-05-21T02:10:58.999Z,12.14
2018-05-21T02:13:27.595Z,12.12
2018-05-21T02:15:56.219Z,12.09
2018-05-21T02:18:24.814Z,12.07
2018-05-21T02:20:53.446Z,12.05
2018-05-21T02:23:22.063Z,12.01
2018-05-21T02:25:50.701Z,11.97
2018-05-21T02:28:19.302Z,11.95
2018-05-21T02:30:47.965Z,11.93
2018-05-21T02:33:16.569Z,11.90
2018-05-21T02:35:47.634Z,11.88
2018-05-21T02:38:18.393Z,11.85
2018-05-21T02:40:47.537Z,11.83
2018-05-21T02:43:16.229Z,11.77
2018-05-21T02:45:44.867Z,11.75
2018-05-21T02:48:13.497Z,11.72
2018-05-21T02:50:42.484Z,11.67
2018-05-21T02:53:11.226Z,11.64
2018-05-21T02:55:40.119Z,11.61
2018-05-21T02:58:10.373Z,11.59
2018-05-21T03:00:40.108Z,11.55
2018-05-21T03:03:12.872Z,11.52
2018-05-21T03:05:41.562Z,11.48
2018-05-21T03:08:10.651Z,11.46
2018-05-21T03:10:39.359Z,11.44
2018-05-21T03:13:07.999Z,11.43
2018-05-21T03:15:37.066Z,11.41
2018-05-21T03:18:15.486Z,11.40
2018-05-21T03:20:44.136Z,12.08
2018-05-21T03:23:12.945Z,11.59
2018-05-21T03:25:41.593Z,11.50
2018-05-21T03:28:10.703Z,12.16
2018-05-21T03:30:39.851Z,11.67
2018-05-21T03:33:08.791Z,11.57
2018-05-21T03:35:37.695Z,11.53
2018-05-21T03:38:06.363Z,11.51
2018-05-21T03:40:35.201Z,11.48
2018-05-21T03:43:04.815Z,11.47
2018-05-21T03:45:33.853Z,12.19
2018-05-21T03:48:02.548Z,12.39
2018-05-21T03:50:32.058Z,11.86
2018-05-21T03:53:01.045Z,11.78
2018-05-21T03:55:29.705Z,11.74
2018-05-21T03:58:00.821Z,11.71
2018-05-21T04:01:06.467Z,11.71
2018-05-21T04:03:56.509Z,11.69
2018-05-21T04:06:25.311Z,11.71
2018-05-21T04:08:53.912Z,11.76
2018-05-21T04:11:22.920Z,11.80
2018-05-21T04:13:51.666Z,11.84
2018-05-21T04:16:20.794Z,11.89
2018-05-21T04:18:49.801Z,11.95
2018-05-21T04:21:18.538Z,12.00
2018-05-21T04:23:47.527Z,12.05
2018-05-21T04:26:17.012Z,12.12
2018-05-21T04:28:45.798Z,12.18
2018-05-21T04:31:14.382Z,12.25
2018-05-21T04:33:43.032Z,12.30
2018-05-21T04:36:11.765Z,12.36
2018-05-21T04:38:44.268Z,12.43
2018-05-21T04:41:13.841Z,12.49
2018-05-21T04:43:42.500Z,12.56
2018-05-21T04:46:11.673Z,12.64
2018-05-21T04:48:40.430Z,12.70
2018-05-21T04:51:15.474Z,12.78
2018-05-21T04:56:36.091Z,12.96
2018-05-21T04:59:07.676Z,13.04
2018-05-21T05:01:36.330Z,13.15
2018-05-21T05:04:07.618Z,13.23
2018-05-21T05:06:36.256Z,13.33
2018-05-21T05:09:06.590Z,14.14
2018-05-21T05:11:42.840Z,13.75
2018-05-21T05:14:11.486Z,13.74
2018-05-21T05:16:47.720Z,13.78
2018-05-21T05:19:16.389Z,13.85
2018-05-21T05:21:45.467Z,14.64
2018-05-21T05:24:14.097Z,14.24
2018-05-21T05:26:43.144Z,14.25
2018-05-21T05:29:13.272Z,14.32
2018-05-21T05:31:42.388Z,14.40
2018-05-21T05:37:02.892Z,14.59
2018-05-21T05:39:34.493Z,14.70
2018-05-21T05:44:51.779Z,14.97
2018-05-21T05:47:31.576Z,15.84
2018-05-21T05:50:00.239Z,15.47
2018-05-21T05:52:29.100Z,15.52
2018-05-21T05:54:58.403Z,16.36
2018-05-21T05:57:27.157Z,15.95
2018-05-21T05:59:55.770Z,16.05
2018-05-21T06:02:24.427Z,16.17
2018-05-21T06:04:55.651Z,16.27
2018-05-21T06:07:24.256Z,16.38
2018-05-21T06:09:52.942Z,16.47
2018-05-21T06:12:21.577Z,16.64
2018-05-21T06:14:50.227Z,17.57
2018-05-21T06:17:18.845Z,17.25
2018-05-21T06:19:47.545Z,17.28
2018-05-21T06:22:16.177Z,17.34
2018-05-21T06:24:44.848Z,18.24
2018-05-21T06:27:13.477Z,17.84
2018-05-21T06:29:42.136Z,17.91
2018-05-21T06:32:12.735Z,18.05
2018-05-21T06:34:41.425Z,18.18
2018-05-21T06:37:10.114Z,18.35
2018-05-21T06:39:38.779Z,18.50
2018-05-21T06:42:07.417Z,18.66
2018-05-21T06:44:36.088Z,19.67
2018-05-21T06:47:04.706Z,19.27
2018-05-21T06:49:33.408Z,19.37
2018-05-21T06:52:02.025Z,19.50
2018-05-21T06:54:30.629Z,19.58
2018-05-21T06:56:59.277Z,19.75
2018-05-21T06:59:28.011Z,20.75
2018-05-21T07:01:58.989Z,20.27
2018-05-21T07:04:27.637Z,20.33
2018-05-21T07:06:56.289Z,20.45
2018-05-21T07:09:24.902Z,20.61
2018-05-21T07:11:53.584Z,20.77
2018-05-21T07:14:22.244Z,20.92
2018-05-21T07:16:50.915Z,21.08
2018-05-21T07:19:19.526Z,21.12
2018-05-21T07:21:48.150Z,21.08
2018-05-21T07:24:16.775Z,22.21
2018-05-21T07:26:45.462Z,21.67
2018-05-21T07:29:14.082Z,22.62
2018-05-21T07:31:43.697Z,22.90
2018-05-21T07:34:12.324Z,22.16
2018-05-21T07:36:40.987Z,21.99
2018-05-21T07:39:09.610Z,21.95
2018-05-21T07:41:38.255Z,22.01
2018-05-21T07:44:09.456Z,22.02
2018-05-21T07:46:38.100Z,22.16
2018-05-21T07:49:09.135Z,22.21
2018-05-21T07:51:39.723Z,22.30
2018-05-21T07:54:09.141Z,22.40
2018-05-21T07:56:48.790Z,23.57
2018-05-21T07:59:17.377Z,22.74
2018-05-21T08:01:49.868Z,22.70
2018-05-21T08:04:18.485Z,22.71
2018-05-21T08:06:56.118Z,22.78
2018-05-21T08:09:29.135Z,23.99
2018-05-21T08:11:58.809Z,23.21
2018-05-21T08:14:27.641Z,23.18
2018-05-21T08:16:58.403Z,23.27
2018-05-21T08:19:27.000Z,24.36
2018-05-21T08:21:55.656Z,24.54
2018-05-21T08:24:24.271Z,24.70
2018-05-21T08:26:52.895Z,23.74
2018-05-21T08:29:22.896Z,23.55
2018-05-21T08:31:51.541Z,23.55
2018-05-21T08:34:22.548Z,23.57
2018-05-21T08:36:53.633Z,24.83
2018-05-21T08:39:24.541Z,24.16
2018-05-21T08:41:53.190Z,24.05
2018-05-21T08:44:21.776Z,24.06
2018-05-21T08:46:53.046Z,24.13
2018-05-21T08:49:21.655Z,24.10
2018-05-21T08:51:51.442Z,24.19
2018-05-21T08:54:21.998Z,24.20
2018-05-21T08:56:50.640Z,24.20
2018-05-21T08:59:19.244Z,25.48
2018-05-21T09:01:49.981Z,24.69
2018-05-21T09:04:18.604Z,24.59
2018-05-21T09:06:49.465Z,24.67
2018-05-21T09:09:18.088Z,24.77
2018-05-21T09:11:46.677Z,24.89
2018-05-21T09:14:15.302Z,24.96
2018-05-21T09:16:45.135Z,25.04
2018-05-21T09:19:15.603Z,25.12
2018-05-21T09:21:44.214Z,25.05
2018-05-21T09:24:13.168Z,25.03
2018-05-21T09:26:41.779Z,26.39
2018-05-21T09:29:10.430Z,25.64
2018-05-21T09:31:39.051Z,25.71
2018-05-21T09:34:07.720Z,25.79
2018-05-21T09:36:37.294Z,25.83
2018-05-21T09:39:05.930Z,25.89
2018-05-21T09:41:34.530Z,25.91
2018-05-21T09:44:05.839Z,27.16
2018-05-21T09:46:35.407Z,27.31
2018-05-21T09:49:04.068Z,27.41
2018-05-21T09:51:32.787Z,26.57
2018-05-21T09:54:01.451Z,26.47
2018-05-21T09:56:30.071Z,26.52
2018-05-21T09:58:58.745Z,26.58
2018-05-21T10:01:27.749Z,26.58
2018-05-21T10:03:59.473Z,26.49
2018-05-21T10:06:28.091Z,26.46
2018-05-21T10:08:56.776Z,26.61
2018-05-21T10:11:27.360Z,26.64
2018-05-21T10:13:56.140Z,26.74
2018-05-21T10:16:24.734Z,26.87
2018-05-21T10:18:53.357Z,28.19
2018-05-21T10:21:21.989Z,27.42
2018-05-21T10:23:50.660Z,27.24
2018-05-21T10:26:21.322Z,28.45
2018-05-21T10:28:49.959Z,27.59
2018-05-21T10:31:20.977Z,27.48
2018-05-21T10:33:50.710Z,27.43
2018-05-21T10:36:19.370Z,27.45
2018-05-21T10:38:49.019Z,27.27
2018-05-21T10:41:17.631Z,27.11
2018-05-21T10:43:46.281Z,27.24
2018-05-21T10:46:14.858Z,27.32
2018-05-21T10:48:43.465Z,27.23
2018-05-21T10:51:12.172Z,27.31
2018-05-21T10:53:40.801Z,28.73
2018-05-21T10:56:12.088Z,28.74
2018-05-21T10:58:40.742Z,27.70
2018-05-21T11:01:09.373Z,27.66
2018-05-21T11:03:37.987Z,27.77
2018-05-21T11:06:09.707Z,27.82
2018-05-21T11:08:38.302Z,27.94
2018-05-21T11:11:08.910Z,28.03
2018-05-21T11:13:41.323Z,28.05
2018-05-21T11:16:10.360Z,29.23
2018-05-21T11:18:38.962Z,28.33
2018-05-21T11:21:07.581Z,28.29
2018-05-21T11:23:38.309Z,29.43
2018-05-21T11:26:09.304Z,28.51
2018-05-21T11:28:37.894Z,28.31
2018-05-21T11:31:06.533Z,28.26
2018-05-21T11:33:35.126Z,28.01
2018-05-21T11:36:03.745Z,27.90
2018-05-21T11:38:32.350Z,27.92
2018-05-21T11:41:00.977Z,27.90
2018-05-21T11:43:29.565Z,27.91
2018-05-21T11:45:58.210Z,27.76
2018-05-21T11:48:26.804Z,27.77
2018-05-21T11:50:55.451Z,29.11
2018-05-21T11:53:24.055Z,28.15
2018-05-21T11:55:54.752Z,28.03
2018-05-21T11:58:23.343Z,28.04
2018-05-21T12:00:52.924Z,28.08
2018-05-21T12:03:21.519Z,28.14
2018-05-21T12:05:50.146Z,28.25
2018-05-21T12:08:18.738Z,28.20
2018-05-21T12:10:47.362Z,29.36
2018-05-21T12:13:15.953Z,28.42
2018-05-21T12:15:44.615Z,28.31
2018-05-21T12:18:13.249Z,28.44
2018-05-21T12:20:41.902Z,28.41
2018-05-21T12:23:10.636Z,28.13
2018-05-21T12:25:40.323Z,28.06
2018-05-21T12:28:08.925Z,28.21
2018-05-21T12:30:38.125Z,28.30
2018-05-21T12:33:06.685Z,28.34
2018-05-21T12:35:35.299Z,28.46
2018-05-21T12:38:03.929Z,28.42
2018-05-21T12:40:32.529Z,28.49
2018-05-21T12:43:01.182Z,28.51
2018-05-21T12:45:30.839Z,28.31
2018-05-21T12:48:01.447Z,28.34
2018-05-21T12:50:30.603Z,28.25
2018-05-21T12:52:59.238Z,28.33
2018-05-21T12:55:30.160Z,28.37
2018-05-21T12:57:58.797Z,28.49
2018-05-21T13:00:27.402Z,28.59
2018-05-21T13:02:56.043Z,28.75
2018-05-21T13:05:24.647Z,28.73
2018-05-21T13:07:53.270Z,28.75
2018-05-21T13:10:21.860Z,28.81
2018-05-21T13:12:50.954Z,28.81
2018-05-21T13:15:20.111Z,28.91
2018-05-21T13:17:49.666Z,28.80
2018-05-21T13:20:18.303Z,28.83
2018-05-21T13:22:46.934Z,28.82
2018-05-21T13:25:22.683Z,28.95
2018-05-21T13:27:51.344Z,29.15
2018-05-21T13:30:21.666Z,29.25
2018-05-21T13:32:50.627Z,29.10
2018-05-21T13:35:23.541Z,29.24
2018-05-21T13:37:52.659Z,29.23
2018-05-21T13:40:23.685Z,29.19
2018-05-21T13:45:40.447Z,29.48
2018-05-21T13:48:09.165Z,29.58
2018-05-21T13:50:42.681Z,29.50
2018-05-21T13:53:11.712Z,29.54
2018-05-21T13:55:40.799Z,29.64
2018-05-21T13:58:09.715Z,29.65
2018-05-21T14:00:39.320Z,29.63
2018-05-21T14:03:07.949Z,29.66
2018-05-21T14:05:36.744Z,29.64
2018-05-21T14:08:05.681Z,30.92
2018-05-21T14:10:34.355Z,30.04
2018-05-21T14:13:03.033Z,29.90
2018-05-21T14:15:31.684Z,29.79
2018-05-21T14:18:00.352Z,29.54
2018-05-21T14:20:28.955Z,29.43
2018-05-21T14:22:57.590Z,29.47
2018-05-21T14:25:27.167Z,29.45
2018-05-21T14:27:57.255Z,29.50
2018-05-21T14:30:25.864Z,29.58
2018-05-21T14:32:54.559Z,29.61
2018-05-21T14:35:24.980Z,29.72
2018-05-21T14:37:54.979Z,30.75
2018-05-21T14:40:26.103Z,30.97
2018-05-21T14:42:54.857Z,30.22
2018-05-21T14:45:23.893Z,30.02
2018-05-21T14:47:54.628Z,29.96
2018-05-21T14:50:25.741Z,30.22
2018-05-21T14:52:54.642Z,30.69
2018-05-21T14:55:28.728Z,31.38
2018-05-21T14:57:57.330Z,31.92
2018-05-21T15:00:25.960Z,32.21
2018-05-21T15:02:54.593Z,32.70
2018-05-21T15:05:23.278Z,34.27
2018-05-21T15:07:51.875Z,33.64
2018-05-21T15:10:20.584Z,33.58
2018-05-21T15:12:49.208Z,33.54
2018-05-21T15:15:17.878Z,33.56
2018-05-21T15:17:46.847Z,33.60
2018-05-21T15:20:15.697Z,33.84
2018-05-21T15:22:46.122Z,34.08
2018-05-21T15:25:17.194Z,33.81
2018-05-21T15:27:46.715Z,34.00
2018-05-21T15:30:15.369Z,34.25
2018-05-21T15:32:44.912Z,34.41
2018-05-21T15:35:13.563Z,34.60
2018-05-21T15:37:42.199Z,34.70
2018-05-21T15:40:12.809Z,34.96
2018-05-21T15:42:43.823Z,36.27
2018-05-21T15:45:15.186Z,35.52
2018-05-21T15:47:44.783Z,35.38
2018-05-21T15:50:15.417Z,35.04
2018-05-21T15:52:44.383Z,35.08
2018-05-21T15:55:13.427Z,34.89
2018-05-21T15:57:44.198Z,35.17
2018-05-21T16:00:12.735Z,35.11
2018-05-21T16:02:41.380Z,35.08
2018-05-21T16:05:14.901Z,35.11
2018-05-21T16:07:45.897Z,35.05
2018-05-21T16:10:17.269Z,34.88
2018-05-21T16:12:53.787Z,36.56
2018-05-21T16:15:22.411Z,35.22
2018-05-21T16:17:51.184Z,34.71
2018-05-21T16:20:19.731Z,34.51
2018-05-21T16:22:51.420Z,34.57
2018-05-21T16:25:22.398Z,34.39
2018-05-21T16:27:53.351Z,34.44
2018-05-21T16:30:23.954Z,34.47
2018-05-21T16:32:52.572Z,34.35
2018-05-21T16:35:21.507Z,34.27
2018-05-21T16:37:50.497Z,34.21
2018-05-21T16:40:19.141Z,33.70
2018-05-21T16:42:51.431Z,33.73
2018-05-21T16:45:23.197Z,33.70
2018-05-21T16:47:56.810Z,33.71
2018-05-21T16:50:27.199Z,33.75
2018-05-21T16:52:56.922Z,33.76
2018-05-21T16:55:27.454Z,34.12
2018-05-21T16:57:56.132Z,34.34
2018-05-21T17:00:26.787Z,34.60
2018-05-21T17:02:55.405Z,34.68
2018-05-21T17:05:24.083Z,34.79
2018-05-21T17:07:54.978Z,34.80
2018-05-21T17:10:24.529Z,34.70
2018-05-21T17:12:53.398Z,34.67
2018-05-21T17:15:22.505Z,34.71
2018-05-21T17:17:54.055Z,34.80
2018-05-21T17:20:23.285Z,34.75
2018-05-21T17:22:53.040Z,37.19
2018-05-21T17:25:22.423Z,35.56
2018-05-21T17:27:51.641Z,35.47
2018-05-21T17:30:20.260Z,35.38
2018-05-21T17:32:51.516Z,35.53
2018-05-21T17:35:20.496Z,37.74
2018-05-21T17:37:54.742Z,35.90
2018-05-21T17:40:23.424Z,35.13
2018-05-21T17:42:53.280Z,34.54
2018-05-21T17:45:22.133Z,33.88
2018-05-21T17:47:51.968Z,33.01
2018-05-21T17:50:20.584Z,32.49
2018-05-21T17:52:52.629Z,32.17
2018-05-21T17:55:21.648Z,31.26
2018-05-21T17:57:51.598Z,30.29
2018-05-21T18:00:21.446Z,29.46
2018-05-21T18:02:50.392Z,28.77
2018-05-21T18:05:19.424Z,28.19
2018-05-21T18:07:51.387Z,27.62
2018-05-21T18:10:20.330Z,27.05
2018-05-21T18:12:49.394Z,26.62
2018-05-21T18:15:21.392Z,26.21
2018-05-21T18:18:04.475Z,25.83
2018-05-21T18:20:37.197Z,25.40
2018-05-21T18:23:21.692Z,25.06
2018-05-21T18:25:50.633Z,24.67
2018-05-21T18:28:23.664Z,24.32
2018-05-21T18:30:52.895Z,24.01
2018-05-21T18:33:23.453Z,23.70
2018-05-21T18:35:52.331Z,23.46
2018-05-21T18:38:21.026Z,23.21
2018-05-21T18:40:49.941Z,23.01
2018-05-21T18:43:22.658Z,22.81
2018-05-21T18:45:56.490Z,22.56
2018-05-21T18:48:27.168Z,22.33
2018-05-21T18:53:56.485Z,21.89
2018-05-21T18:56:25.272Z,21.73
2018-05-21T18:58:55.954Z,21.56
2018-05-21T19:01:24.565Z,21.36
2018-05-21T19:03:53.255Z,21.16
2018-05-21T19:06:22.430Z,21.94
2018-05-21T19:08:51.437Z,21.08
2018-05-21T19:11:20.145Z,20.82
2018-05-21T19:13:54.914Z,20.57
2018-05-21T19:16:23.752Z,20.33
2018-05-21T19:18:52.451Z,20.14
2018-05-21T19:21:21.084Z,19.95
2018-05-21T19:23:56.445Z,19.78
2018-05-21T19:26:25.798Z,19.56
2018-05-21T19:28:59.198Z,19.39
2018-05-21T19:31:28.236Z,19.19
2018-05-21T19:33:57.305Z,19.01
2018-05-21T19:36:26.426Z,18.84
2018-05-21T19:38:55.240Z,18.70
2018-05-21T19:41:23.984Z,18.60
2018-05-21T19:43:52.655Z,18.50
2018-05-21T19:46:21.302Z,18.42
2018-05-21T19:48:52.461Z,18.30
2018-05-21T19:51:21.151Z,18.17
2018-05-21T19:53:50.213Z,18.05
2018-05-21T19:56:18.827Z,17.93
2018-05-21T19:58:47.484Z,17.84
2018-05-21T20:01:16.148Z,17.76
2018-05-21T20:03:44.797Z,17.67
2018-05-21T20:06:13.539Z,17.61
2018-05-21T20:08:42.198Z,17.54
2018-05-21T20:11:15.628Z,17.48
2018-05-21T20:13:44.383Z,17.43
2018-05-21T20:16:12.995Z,18.16
2018-05-21T20:18:41.669Z,17.55
2018-05-21T20:21:10.312Z,17.38
2018-05-21T20:23:38.993Z,17.26
2018-05-21T20:26:09.047Z,17.16
2018-05-21T20:28:37.731Z,17.10
2018-05-21T20:31:06.432Z,17.02
2018-05-21T20:33:35.134Z,16.83
2018-05-21T20:36:03.897Z,16.70
2018-05-21T20:38:32.664Z,17.42
2018-05-21T20:41:01.290Z,16.80
2018-05-21T20:43:30.216Z,16.63
2018-05-21T20:46:02.869Z,17.31
2018-05-21T20:48:31.628Z,16.69
2018-05-21T20:51:02.055Z,16.51
2018-05-21T20:53:33.208Z,16.38
2018-05-21T20:56:02.199Z,16.16
2018-05-21T20:58:30.834Z,16.04
2018-05-21T21:00:59.999Z,15.92
2018-05-21T21:03:33.742Z,15.80
2018-05-21T21:06:03.716Z,15.71
2018-05-21T21:08:32.347Z,15.65
2018-05-21T21:11:01.017Z,15.60
2018-05-21T21:13:29.679Z,15.60
2018-05-21T21:16:01.816Z,15.60
2018-05-21T21:18:31.548Z,16.32
2018-05-21T21:21:02.749Z,15.82
2018-05-21T21:23:31.731Z,15.72
2018-05-21T21:26:00.473Z,15.64
2018-05-21T21:28:29.137Z,15.56
2018-05-21T21:31:00.334Z,15.50
2018-05-21T21:33:29.021Z,15.45
2018-05-21T21:35:57.731Z,16.12
2018-05-21T21:38:26.568Z,15.62
2018-05-21T21:40:59.385Z,15.46
2018-05-21T21:43:29.823Z,15.35
2018-05-21T21:45:58.482Z,15.28
2018-05-21T21:48:27.174Z,15.20
2018-05-21T21:50:56.075Z,15.83
2018-05-21T21:53:24.994Z,15.29
2018-05-21T21:55:53.672Z,15.17
2018-05-21T21:58:22.315Z,15.05
2018-05-21T22:00:53.302Z,14.98
2018-05-21T22:03:22.215Z,14.90
2018-05-21T22:05:50.993Z,14.85
2018-05-21T22:08:20.172Z,14.82
2018-05-21T22:10:54.882Z,14.77
2018-05-21T22:13:28.240Z,14.71
2018-05-21T22:16:02.605Z,14.65
2018-05-21T22:18:31.928Z,14.62
2018-05-21T22:21:00.611Z,14.56
2018-05-21T22:23:29.284Z,14.47
2018-05-21T22:25:59.101Z,14.44
2018-05-21T22:28:28.033Z,14.42
2018-05-21T22:30:56.933Z,14.38
2018-05-21T22:33:29.418Z,15.04
2018-05-21T22:36:00.851Z,14.54
2018-05-21T22:38:31.536Z,15.13
2018-05-21T22:41:01.704Z,14.57
2018-05-21T22:43:30.772Z,14.44
2018-05-21T22:45:59.708Z,14.35
2018-05-21T22:48:28.719Z,14.25
2018-05-21T22:51:08.502Z,14.16
2018-05-21T22:53:38.351Z,14.09
2018-05-21T22:56:07.256Z,14.04
2018-05-21T22:58:37.424Z,14.01
2018-05-21T23:01:06.569Z,14.68
2018-05-21T23:03:38.687Z,14.18
2018-05-21T23:06:07.471Z,14.08
2018-05-21T23:08:37.715Z,14.04
2018-05-21T23:11:08.660Z,13.99
2018-05-21T23:13:41.164Z,13.94
2018-05-21T23:16:10.259Z,13.88
2018-05-21T23:18:42.671Z,13.80
2018-05-21T23:21:11.495Z,13.69
2018-05-21T23:23:41.516Z,13.58
2018-05-21T23:26:10.370Z,13.53
2018-05-21T23:28:40.361Z,13.47
2018-05-21T23:31:09.022Z,13.41
2018-05-21T23:33:39.534Z,13.37
2018-05-21T23:36:08.158Z,13.33
2018-05-21T23:38:37.064Z,13.29
2018-05-21T23:41:06.187Z,13.28
2018-05-21T23:43:37.477Z,13.28
2018-05-21T23:46:06.227Z,13.27
2018-05-21T23:48:34.923Z,13.25
2018-05-21T23:51:03.836Z,13.23
2018-05-21T23:53:32.407Z,13.21
2018-05-21T23:56:01.075Z,13.20
2018-05-21T23:58:29.837Z,13.17
